Time;durP1;ratioP1;P1;durP2;ratioP2;P2;SDS_P1;SDS_P2;PMS_P1;PMS_P2;Temp;Humidity;BMP_temperature;BMP_pressure;BME280_temperature;BME280_humidity;BME280_pressure;Samples;Min_cycle;Max_cycle;Signal;HPM_P1;HPM_P2
2023/05/31 00:00:02;;;;;;;4.93;4.63;;;18.60;37.70;;;;;;5021437;28;20192;-89
2023/05/31 00:02:27;;;;;;;5.15;4.75;;;18.50;37.10;;;;;;5018533;28;20207;-87
2023/05/31 00:04:53;;;;;;;5.35;4.72;;;18.50;38.00;;;;;;5008255;28;20239;-86
2023/05/31 00:07:19;;;;;;;5.30;4.90;;;18.60;37.90;;;;;;5040844;28;20197;-87
2023/05/31 00:09:44;;;;;;;4.88;4.47;;;18.80;37.60;;;;;;5042214;28;20207;-85
2023/05/31 00:12:10;;;;;;;5.65;4.70;;;18.90;36.90;;;;;;5043870;28;20627;-88
2023/05/31 00:14:36;;;;;;;5.30;4.90;;;18.90;36.70;;;;;;5042079;28;20266;-89
2023/05/31 00:17:01;;;;;;;6.93;6.43;;;18.70;36.10;;;;;;5025190;28;20841;-85
2023/05/31 00:19:27;;;;;;;6.93;6.40;;;18.50;36.50;;;;;;5028139;28;20191;-87
2023/05/31 00:21:53;;;;;;;7.82;7.05;;;18.40;36.70;;;;;;5044353;28;20602;-87
2023/05/31 00:24:18;;;;;;;7.03;6.43;;;18.40;36.80;;;;;;5043978;28;20208;-87
2023/05/31 00:26:44;;;;;;;7.65;6.88;;;18.30;37.10;;;;;;5041919;28;20208;-89
2023/05/31 00:29:09;;;;;;;7.43;6.40;;;18.40;37.10;;;;;;5025920;28;20196;-88
2023/05/31 00:31:35;;;;;;;7.57;6.70;;;18.30;37.30;;;;;;5024423;28;20646;-89
2023/05/31 00:34:01;;;;;;;7.38;6.68;;;18.20;37.50;;;;;;5042047;28;20191;-87
2023/05/31 00:36:26;;;;;;;6.63;6.03;;;18.10;37.70;;;;;;5043704;28;20481;-87
2023/05/31 00:38:52;;;;;;;6.65;6.10;;;18.10;37.80;;;;;;5044033;28;20191;-86
2023/05/31 00:41:18;;;;;;;6.35;5.75;;;18.20;38.00;;;;;;5043641;28;20181;-87
2023/05/31 00:43:44;;;;;;;6.72;5.97;;;18.30;37.50;;;;;;5025817;28;20196;-87
2023/05/31 00:46:18;;;;;;;6.00;5.50;;;18.20;37.80;;;;;;5031998;28;20231;-87
2023/05/31 00:48:45;;;;;;;5.80;5.38;;;18.10;38.30;;;;;;5023026;28;20185;-87
2023/05/31 00:51:12;;;;;;;6.37;5.87;;;18.00;38.20;;;;;;5021562;28;20688;-88
2023/05/31 00:53:37;;;;;;;6.33;5.60;;;18.00;38.60;;;;;;5022774;28;20200;-87
2023/05/31 00:56:04;;;;;;;6.23;5.70;;;17.90;38.60;;;;;;5023047;28;20261;-86
2023/05/31 00:58:34;;;;;;;6.17;5.53;;;18.00;38.90;;;;;;5023833;28;20224;-87
2023/05/31 01:01:00;;;;;;;5.80;5.20;;;18.00;38.80;;;;;;5024066;28;20188;-87
2023/05/31 01:03:26;;;;;;;5.47;4.97;;;18.10;38.70;;;;;;5023980;28;20204;-87
2023/05/31 01:05:52;;;;;;;6.15;4.95;;;18.10;38.50;;;;;;5024023;28;20306;-87
2023/05/31 01:08:19;;;;;;;5.43;4.93;;;18.00;38.70;;;;;;5015013;28;20196;-87
2023/05/31 01:10:45;;;;;;;5.35;4.60;;;18.00;38.90;;;;;;5003232;28;20561;-87
2023/05/31 01:13:20;;;;;;;5.85;4.38;;;17.90;39.30;;;;;;4986398;28;20209;-87
2023/05/31 01:16:02;;;;;;;4.78;4.30;;;17.90;39.20;;;;;;5003379;28;20250;-88
2023/05/31 01:18:54;;;;;;;4.77;4.40;;;17.80;39.30;;;;;;5008423;28;20244;-87
2023/05/31 01:21:28;;;;;;;5.57;4.57;;;17.80;39.70;;;;;;5041729;28;20191;-85
2023/05/31 01:24:00;;;;;;;4.70;4.30;;;17.60;39.90;;;;;;5043654;28;20270;-87
2023/05/31 01:26:42;;;;;;;4.83;4.43;;;17.70;40.30;;;;;;5043361;28;20282;-86
2023/05/31 01:29:13;;;;;;;6.13;4.00;;;17.60;40.90;;;;;;5035314;28;20192;-87
2023/05/31 01:31:41;;;;;;;4.30;3.90;;;17.60;40.80;;;;;;5021680;28;20204;-87
2023/05/31 01:34:07;;;;;;;4.23;3.93;;;17.60;41.10;;;;;;5033713;28;20249;-88
2023/05/31 01:36:32;;;;;;;4.17;3.87;;;17.60;40.80;;;;;;5040755;28;20245;-87
2023/05/31 01:39:00;;;;;;;4.57;3.90;;;17.70;42.10;;;;;;5040208;28;20242;-87
2023/05/31 01:41:28;;;;;;;4.30;3.90;;;17.60;41.10;;;;;;5041212;28;20181;-86
2023/05/31 01:43:54;;;;;;;5.10;4.00;;;17.50;41.40;;;;;;5039638;28;20220;-87
2023/05/31 01:46:20;;;;;;;4.37;4.03;;;17.40;41.50;;;;;;5032894;28;20221;-88
2023/05/31 01:48:47;;;;;;;4.07;3.77;;;17.40;41.90;;;;;;5004774;28;20183;-90
2023/05/31 01:51:15;;;;;;;5.87;3.60;;;17.40;42.00;;;;;;5022782;28;20241;-86
2023/05/31 01:53:41;;;;;;;4.37;3.80;;;17.30;42.20;;;;;;5030988;28;20189;-87
2023/05/31 01:56:08;;;;;;;4.30;3.90;;;17.40;42.60;;;;;;5024890;28;20223;-87
2023/05/31 01:58:36;;;;;;;4.27;3.87;;;17.40;42.60;;;;;;5042552;28;20207;-88
2023/05/31 02:01:02;;;;;;;4.23;3.87;;;17.30;41.80;;;;;;5030652;28;20270;-88
2023/05/31 02:03:28;;;;;;;5.97;4.17;;;17.30;42.10;;;;;;5022359;28;20235;-87
2023/05/31 02:05:59;;;;;;;4.47;4.00;;;17.30;42.50;;;;;;5022122;28;20231;-87
2023/05/31 02:08:25;;;;;;;4.50;4.10;;;17.20;42.20;;;;;;5012101;28;20186;-87
2023/05/31 02:10:51;;;;;;;3.97;3.60;;;17.10;42.90;;;;;;5001621;28;20636;-87
2023/05/31 02:13:18;;;;;;;4.43;3.97;;;17.00;42.70;;;;;;5008541;28;20194;-88
2023/05/31 02:15:44;;;;;;;4.20;3.80;;;17.00;42.90;;;;;;5022403;28;20243;-87
2023/05/31 02:18:10;;;;;;;5.20;4.30;;;17.10;42.50;;;;;;5022440;28;20184;-88
2023/05/31 02:20:36;;;;;;;4.50;4.10;;;17.30;42.50;;;;;;5021723;28;20246;-87
2023/05/31 02:23:01;;;;;;;4.63;4.10;;;17.30;42.30;;;;;;5026532;28;20671;-88
2023/05/31 02:25:30;;;;;;;4.03;3.63;;;17.30;42.10;;;;;;5041554;28;20400;-86
2023/05/31 02:27:57;;;;;;;4.67;3.90;;;17.40;42.50;;;;;;5040402;28;20177;-88
2023/05/31 02:30:25;;;;;;;5.53;4.00;;;17.20;42.20;;;;;;5040976;28;20334;-87
2023/05/31 02:32:51;;;;;;;4.00;3.70;;;17.10;42.40;;;;;;5036456;28;20181;-87
2023/05/31 02:35:17;;;;;;;4.10;3.80;;;17.00;42.90;;;;;;5019731;28;20181;-86
2023/05/31 02:37:45;;;;;;;3.97;3.63;;;16.80;43.50;;;;;;5019038;28;20387;-86
2023/05/31 02:40:10;;;;;;;4.67;3.93;;;16.70;43.70;;;;;;5018883;28;20178;-89
2023/05/31 02:42:40;;;;;;;4.07;3.77;;;16.70;43.80;;;;;;5017973;28;20213;-88
2023/05/31 02:45:07;;;;;;;5.33;3.80;;;16.60;44.10;;;;;;5035285;28;20259;-87
2023/05/31 02:47:33;;;;;;;4.87;3.50;;;16.60;44.10;;;;;;5020500;28;20194;-87
2023/05/31 02:49:58;;;;;;;3.90;3.60;;;16.60;44.40;;;;;;5019974;28;20170;-87
2023/05/31 02:52:26;;;;;;;6.00;4.00;;;16.60;44.10;;;;;;5018393;28;20197;-86
2023/05/31 02:54:52;;;;;;;4.97;3.93;;;16.60;44.30;;;;;;5002948;28;20198;-87
2023/05/31 02:57:18;;;;;;;4.80;3.80;;;16.60;44.20;;;;;;5021270;28;20265;-87
2023/05/31 02:59:44;;;;;;;5.13;4.23;;;16.60;44.40;;;;;;5003303;28;20699;-88
2023/05/31 03:02:10;;;;;;;5.40;3.40;;;16.50;44.50;;;;;;5020054;28;20189;-88
2023/05/31 03:04:36;;;;;;;4.77;3.40;;;16.50;44.40;;;;;;5035476;28;20220;-87
2023/05/31 03:07:02;;;;;;;6.40;4.20;;;16.50;44.50;;;;;;5041273;28;20205;-87
2023/05/31 03:09:28;;;;;;;4.47;4.07;;;16.50;44.40;;;;;;5032008;28;20186;-88
2023/05/31 03:11:54;;;;;;;4.60;3.50;;;16.40;44.70;;;;;;5002068;28;20192;-87
2023/05/31 03:14:20;;;;;;;5.73;3.90;;;16.40;44.80;;;;;;5033513;28;20211;-89
2023/05/31 03:16:46;;;;;;;5.20;3.50;;;16.40;44.80;;;;;;5040410;28;20232;-88
2023/05/31 03:19:14;;;;;;;4.77;3.80;;;16.40;44.70;;;;;;5039647;28;20208;-87
2023/05/31 03:21:40;;;;;;;4.97;4.07;;;16.30;44.70;;;;;;5038922;28;20177;-87
2023/05/31 03:24:06;;;;;;;6.27;3.70;;;16.40;44.60;;;;;;5028853;28;20213;-88
2023/05/31 03:26:32;;;;;;;4.50;3.53;;;16.30;44.90;;;;;;5020018;28;20755;-86
2023/05/31 03:28:57;;;;;;;3.73;3.43;;;16.30;44.90;;;;;;5017992;28;20234;-86
2023/05/31 03:31:23;;;;;;;5.33;3.80;;;16.30;44.90;;;;;;5017458;28;20185;-87
2023/05/31 03:33:51;;;;;;;4.37;3.97;;;16.30;44.60;;;;;;5016817;28;20190;-88
2023/05/31 03:36:16;;;;;;;5.20;3.73;;;16.30;45.10;;;;;;5029686;28;20226;-87
2023/05/31 03:38:42;;;;;;;4.13;3.73;;;16.40;44.60;;;;;;5035291;28;20203;-87
2023/05/31 03:41:08;;;;;;;4.00;3.37;;;16.40;44.60;;;;;;5036905;28;20318;-87
2023/05/31 03:43:33;;;;;;;4.10;3.70;;;16.40;44.60;;;;;;5019614;28;20207;-87
2023/05/31 03:46:02;;;;;;;4.27;3.57;;;16.30;44.90;;;;;;5020122;28;20646;-86
2023/05/31 03:48:28;;;;;;;4.90;3.80;;;16.30;45.00;;;;;;5020342;28;20188;-87
2023/05/31 03:50:54;;;;;;;5.33;3.90;;;16.40;45.30;;;;;;5019523;28;20182;-87
2023/05/31 03:53:20;;;;;;;4.10;3.50;;;16.40;44.50;;;;;;5019779;28;20213;-87
2023/05/31 03:55:45;;;;;;;4.83;3.80;;;16.40;44.70;;;;;;5019521;28;20221;-86
2023/05/31 03:58:12;;;;;;;6.47;3.90;;;16.40;44.50;;;;;;5018739;28;20188;-88
2023/05/31 04:00:38;;;;;;;3.73;3.30;;;16.40;44.80;;;;;;5018785;28;20234;-87
2023/05/31 04:03:04;;;;;;;3.93;3.30;;;16.50;44.90;;;;;;5035387;28;20181;-88
2023/05/31 04:05:29;;;;;;;3.93;3.20;;;16.30;44.90;;;;;;5038042;28;20207;-86
2023/05/31 04:07:55;;;;;;;4.27;3.87;;;16.30;45.00;;;;;;5032673;28;20201;-88
2023/05/31 04:10:21;;;;;;;6.47;4.23;;;16.30;45.20;;;;;;5018404;28;20179;-88
2023/05/31 04:12:46;;;;;;;5.27;3.50;;;16.30;45.20;;;;;;5017216;28;20217;-85
2023/05/31 04:15:12;;;;;;;4.50;3.90;;;16.40;45.50;;;;;;5019203;28;20232;-88
2023/05/31 04:17:37;;;;;;;5.20;3.73;;;16.40;45.20;;;;;;5019214;28;20674;-87
2023/05/31 04:20:07;;;;;;;3.83;3.37;;;16.40;45.30;;;;;;5027865;28;20456;-87
2023/05/31 04:22:35;;;;;;;9.53;8.73;;;16.40;45.40;;;;;;5038961;28;20194;-87
2023/05/31 04:25:01;;;;;;;4.80;3.67;;;16.30;45.80;;;;;;5037155;28;20691;-86
2023/05/31 04:27:28;;;;;;;4.03;3.63;;;16.20;45.70;;;;;;5036744;28;20204;-87
2023/05/31 04:29:57;;;;;;;4.70;4.03;;;16.20;46.10;;;;;;5037030;28;20251;-88
2023/05/31 04:32:23;;;;;;;6.43;3.80;;;16.20;46.00;;;;;;5036308;28;20227;-86
2023/05/31 04:34:48;;;;;;;3.93;3.50;;;16.10;46.60;;;;;;5035949;28;20174;-87
2023/05/31 04:37:15;;;;;;;4.33;3.90;;;16.10;47.40;;;;;;5036380;28;20190;-87
2023/05/31 04:39:41;;;;;;;6.90;3.93;;;16.10;46.90;;;;;;5005209;28;20192;-86
2023/05/31 04:42:09;;;;;;;5.20;3.90;;;16.20;46.70;;;;;;5019851;28;20189;-89
2023/05/31 04:44:36;;;;;;;4.10;3.80;;;16.20;46.80;;;;;;5018594;28;20293;-87
2023/05/31 04:47:02;;;;;;;4.37;3.77;;;16.20;46.60;;;;;;5019975;28;20279;-88
2023/05/31 04:49:27;;;;;;;4.13;3.60;;;16.30;47.10;;;;;;5018507;28;20205;-87
2023/05/31 04:51:53;;;;;;;4.27;3.87;;;16.30;46.60;;;;;;5020095;28;20190;-87
2023/05/31 04:54:19;;;;;;;4.53;3.53;;;16.30;46.50;;;;;;5021398;28;20186;-88
2023/05/31 04:56:44;;;;;;;4.90;3.60;;;16.40;46.50;;;;;;5020129;28;20205;-86
2023/05/31 04:59:10;;;;;;;7.20;4.57;;;16.40;46.40;;;;;;5037495;28;20196;-87
2023/05/31 05:01:37;;;;;;;6.17;3.90;;;16.40;46.60;;;;;;5027111;28;20186;-87
2023/05/31 05:04:02;;;;;;;4.87;3.73;;;16.40;46.30;;;;;;5023163;28;20610;-87
2023/05/31 05:06:28;;;;;;;3.90;3.60;;;16.50;46.40;;;;;;5023630;28;20197;-88
2023/05/31 05:08:54;;;;;;;4.10;3.70;;;16.50;46.50;;;;;;5023627;28;20194;-87
2023/05/31 05:11:19;;;;;;;4.60;3.80;;;16.50;46.40;;;;;;5022558;28;20178;-87
2023/05/31 05:13:45;;;;;;;5.53;3.80;;;16.40;46.30;;;;;;5003883;28;20197;-86
2023/05/31 05:16:12;;;;;;;6.03;3.70;;;16.40;46.50;;;;;;5022667;28;20218;-87
2023/05/31 05:18:38;;;;;;;4.27;3.97;;;16.40;46.40;;;;;;5033573;28;20219;-87
2023/05/31 05:21:03;;;;;;;5.93;3.93;;;16.50;46.30;;;;;;5040217;28;20213;-87
2023/05/31 05:23:29;;;;;;;4.77;3.67;;;16.50;46.10;;;;;;5040480;28;20216;-87
2023/05/31 05:25:55;;;;;;;4.10;3.80;;;16.60;46.00;;;;;;5042015;28;20192;-86
2023/05/31 05:28:22;;;;;;;4.10;3.70;;;16.50;46.00;;;;;;5039394;28;20255;-88
2023/05/31 05:30:49;;;;;;;4.13;3.83;;;16.60;45.80;;;;;;5038200;28;20675;-87
2023/05/31 05:33:15;;;;;;;5.47;3.80;;;16.70;45.90;;;;;;5039043;28;20185;-88
2023/05/31 05:35:41;;;;;;;5.70;3.77;;;16.80;45.70;;;;;;5022968;28;20211;-89
2023/05/31 05:38:06;;;;;;;4.50;3.87;;;16.80;45.50;;;;;;5025128;28;20226;-88
2023/05/31 05:40:32;;;;;;;5.43;3.77;;;16.80;45.40;;;;;;5041334;28;20653;-88
2023/05/31 05:42:57;;;;;;;5.33;3.93;;;16.80;45.40;;;;;;5041806;28;20209;-87
2023/05/31 05:45:23;;;;;;;4.30;3.90;;;16.80;45.90;;;;;;5042469;28;20258;-87
2023/05/31 05:47:49;;;;;;;4.93;3.83;;;16.80;45.50;;;;;;5041705;28;20177;-86
2023/05/31 05:50:15;;;;;;;5.40;4.77;;;17.00;45.30;;;;;;5041812;28;20183;-88
2023/05/31 05:52:40;;;;;;;5.53;3.57;;;17.10;44.50;;;;;;5042089;28;20240;-87
2023/05/31 05:55:07;;;;;;;5.10;3.67;;;17.10;44.40;;;;;;5024072;28;20188;-88
2023/05/31 05:57:32;;;;;;;6.03;4.07;;;17.20;44.00;;;;;;5043335;28;20210;-88
2023/05/31 05:59:58;;;;;;;9.60;4.20;;;17.10;43.90;;;;;;5043747;28;20176;-86
2023/05/31 06:02:23;;;;;;;6.23;4.30;;;17.20;43.50;;;;;;5038826;28;20186;-86
2023/05/31 06:04:49;;;;;;;5.97;4.30;;;17.30;43.60;;;;;;5025419;28;20206;-89
2023/05/31 06:07:16;;;;;;;4.17;3.77;;;17.30;43.80;;;;;;5004469;28;20193;-87
2023/05/31 06:09:42;;;;;;;5.07;4.03;;;17.30;43.50;;;;;;5034715;28;20180;-87
2023/05/31 06:12:08;;;;;;;9.00;4.70;;;17.40;43.40;;;;;;5022868;28;20710;-88
2023/05/31 06:14:34;;;;;;;6.83;3.90;;;17.40;43.10;;;;;;5039608;28;20183;-86
2023/05/31 06:17:00;;;;;;;6.30;4.77;;;17.40;42.90;;;;;;5019692;28;20352;-86
2023/05/31 06:19:26;;;;;;;5.07;4.10;;;17.60;42.70;;;;;;5034152;28;20182;-88
2023/05/31 06:21:53;;;;;;;5.10;3.80;;;17.50;43.20;;;;;;5022208;28;20189;-87
2023/05/31 06:24:19;;;;;;;6.50;4.20;;;17.60;42.60;;;;;;5030829;28;20208;-85
2023/05/31 06:26:45;;;;;;;4.40;4.00;;;17.70;42.50;;;;;;5036417;28;20227;-86
2023/05/31 06:29:10;;;;;;;4.77;4.20;;;17.70;42.20;;;;;;5019050;28;20474;-87
2023/05/31 06:31:36;;;;;;;4.87;3.90;;;17.80;42.10;;;;;;5018280;28;20189;-87
2023/05/31 06:34:02;;;;;;;6.13;4.33;;;17.90;42.10;;;;;;5020066;28;20193;-86
2023/05/31 06:36:29;;;;;;;7.80;4.13;;;17.90;42.10;;;;;;5018603;28;20209;-86
2023/05/31 06:38:54;;;;;;;4.20;3.90;;;18.00;41.60;;;;;;5021002;28;20191;-86
2023/05/31 06:41:20;;;;;;;5.00;4.13;;;18.00;42.00;;;;;;5020258;28;20374;-85
2023/05/31 06:43:46;;;;;;;4.77;4.27;;;18.20;41.60;;;;;;5022678;28;20763;-87
2023/05/31 06:46:12;;;;;;;7.33;4.40;;;18.10;41.50;;;;;;5025837;28;20198;-85
2023/05/31 06:48:38;;;;;;;10.30;4.50;;;18.30;42.60;;;;;;5041408;28;20722;-88
2023/05/31 06:51:03;;;;;;;4.63;4.07;;;18.30;41.80;;;;;;5028318;28;20237;-86
2023/05/31 06:53:29;;;;;;;7.97;4.40;;;18.50;41.00;;;;;;5021426;28;20181;-86
2023/05/31 06:55:55;;;;;;;4.23;3.90;;;18.50;41.10;;;;;;5020095;28;20275;-86
2023/05/31 06:58:21;;;;;;;7.30;4.07;;;18.50;41.40;;;;;;5020210;28;20183;-88
2023/05/31 07:00:47;;;;;;;7.17;4.57;;;18.70;41.50;;;;;;5022065;28;20282;-86
2023/05/31 07:03:12;;;;;;;5.20;4.27;;;18.80;40.10;;;;;;5019570;28;20284;-86
2023/05/31 07:05:40;;;;;;;5.47;4.63;;;18.80;40.40;;;;;;5004034;28;20206;-85
2023/05/31 07:08:06;;;;;;;4.15;3.70;;;18.80;40.60;;;;;;5006570;28;20218;-85
2023/05/31 07:10:31;;;;;;;8.48;4.78;;;19.00;40.00;;;;;;5010174;28;20745;-86
2023/05/31 07:12:57;;;;;;;5.28;4.50;;;19.10;40.20;;;;;;5008647;28;20268;-85
2023/05/31 07:15:22;;;;;;;6.50;4.75;;;19.20;39.40;;;;;;5018006;28;20247;-87
2023/05/31 07:17:48;;;;;;;6.88;4.00;;;19.40;39.30;;;;;;4999803;28;20187;-86
2023/05/31 07:20:15;;;;;;;4.68;4.20;;;19.30;39.20;;;;;;5018459;28;20215;-84
2023/05/31 07:22:41;;;;;;;6.70;4.63;;;19.40;39.40;;;;;;5019586;28;20193;-86
2023/05/31 07:25:07;;;;;;;5.05;4.55;;;19.60;39.00;;;;;;5018978;28;20209;-87
2023/05/31 07:27:32;;;;;;;6.03;4.80;;;19.60;39.10;;;;;;5019889;28;20208;-86
2023/05/31 07:29:58;;;;;;;5.22;4.72;;;19.70;39.10;;;;;;5020475;28;20180;-87
2023/05/31 07:32:24;;;;;;;5.65;5.05;;;19.70;38.60;;;;;;5019549;28;20269;-87
2023/05/31 07:34:49;;;;;;;5.93;4.72;;;19.70;38.80;;;;;;5020441;28;20184;-86
2023/05/31 07:37:15;;;;;;;5.38;4.90;;;19.90;38.50;;;;;;5021732;28;20212;-87
2023/05/31 07:39:41;;;;;;;5.90;4.93;;;20.00;38.10;;;;;;5039193;28;20247;-86
2023/05/31 07:42:07;;;;;;;5.43;5.00;;;20.10;38.40;;;;;;5038484;28;20729;-87
2023/05/31 07:44:32;;;;;;;5.28;4.80;;;20.20;37.90;;;;;;5039894;28;20232;-86
2023/05/31 07:46:59;;;;;;;5.70;5.10;;;20.30;38.30;;;;;;5038229;28;20205;-86
2023/05/31 07:49:25;;;;;;;5.65;5.07;;;20.20;37.80;;;;;;5038762;28;20172;-86
2023/05/31 07:51:51;;;;;;;7.18;5.38;;;20.30;37.60;;;;;;5037267;28;20181;-86
2023/05/31 07:54:17;;;;;;;5.25;4.70;;;20.30;37.40;;;;;;5038450;28;20212;-87
2023/05/31 07:56:43;;;;;;;8.88;5.30;;;20.40;37.50;;;;;;5023581;28;20205;-86
2023/05/31 07:59:09;;;;;;;6.95;4.95;;;20.40;38.10;;;;;;5018735;28;20209;-86
2023/05/31 08:01:35;;;;;;;6.60;5.18;;;20.40;38.50;;;;;;5022115;28;20257;-87
2023/05/31 08:04:08;;;;;;;5.70;5.10;;;20.60;38.40;;;;;;5003819;28;20198;-88
2023/05/31 08:06:36;;;;;;;5.88;4.97;;;20.80;37.40;;;;;;5023643;28;20237;-86
2023/05/31 08:09:06;;;;;;;6.22;5.20;;;20.70;37.20;;;;;;5022732;28;20182;-87
2023/05/31 08:11:32;;;;;;;8.48;5.35;;;20.70;37.40;;;;;;5020813;28;20221;-87
2023/05/31 08:13:58;;;;;;;6.03;4.88;;;20.90;37.80;;;;;;5020844;28;20178;-87
2023/05/31 08:16:23;;;;;;;8.40;5.57;;;21.20;36.80;;;;;;5021496;28;20291;-86
2023/05/31 08:18:49;;;;;;;6.18;5.55;;;21.10;37.40;;;;;;5001939;28;20187;-86
2023/05/31 08:21:15;;;;;;;5.63;5.13;;;21.30;37.10;;;;;;5019355;28;20335;-86
2023/05/31 08:23:43;;;;;;;7.80;5.05;;;21.50;36.20;;;;;;5020306;28;20218;-86
2023/05/31 08:26:08;;;;;;;6.75;5.97;;;21.60;36.00;;;;;;5021583;28;20253;-85
2023/05/31 08:28:34;;;;;;;6.70;6.07;;;21.70;35.70;;;;;;5023219;28;20612;-86
2023/05/31 08:31:00;;;;;;;6.65;6.10;;;21.90;35.80;;;;;;5020941;28;20230;-86
2023/05/31 08:33:31;;;;;;;7.97;5.70;;;21.80;36.10;;;;;;5006238;28;20183;-86
2023/05/31 08:35:59;;;;;;;8.02;5.75;;;21.70;36.40;;;;;;5024392;28;20203;-87
2023/05/31 08:38:29;;;;;;;6.28;5.57;;;21.60;36.20;;;;;;5024826;28;20659;-87
2023/05/31 08:40:56;;;;;;;6.72;6.22;;;21.60;36.40;;;;;;5037541;28;20333;-87
2023/05/31 08:43:25;;;;;;;7.38;5.93;;;21.80;35.50;;;;;;5043400;28;20205;-87
2023/05/31 08:45:51;;;;;;;6.28;5.72;;;21.90;36.00;;;;;;5041298;28;20200;-86
2023/05/31 08:48:37;;;;;;;5.90;5.35;;;21.90;36.20;;;;;;5041918;28;20176;-86
2023/05/31 08:51:05;;;;;;;10.13;6.38;;;22.20;36.40;;;;;;5040454;28;20220;-87
2023/05/31 08:53:33;;;;;;;7.57;7.10;;;22.50;35.20;;;;;;5041050;28;20195;-87
2023/05/31 08:56:01;;;;;;;6.97;6.57;;;22.80;34.10;;;;;;5039953;28;20205;-86
2023/05/31 08:58:28;;;;;;;7.50;6.90;;;22.80;34.10;;;;;;5022113;28;20228;-87
2023/05/31 09:00:54;;;;;;;7.75;7.20;;;22.90;34.20;;;;;;5033302;28;20192;-88
2023/05/31 09:03:22;;;;;;;7.53;7.03;;;23.00;34.10;;;;;;5022672;28;20241;-85
2023/05/31 09:05:48;;;;;;;7.65;7.13;;;23.20;34.30;;;;;;5022956;28;20212;-87
2023/05/31 09:08:14;;;;;;;9.98;7.30;;;23.30;34.40;;;;;;5021051;28;20655;-86
2023/05/31 09:10:40;;;;;;;8.32;7.45;;;23.30;34.40;;;;;;5036878;28;20189;-87
2023/05/31 09:13:07;;;;;;;8.38;7.57;;;23.50;34.00;;;;;;5040315;28;20271;-86
2023/05/31 09:15:36;;;;;;;9.80;8.73;;;23.80;32.90;;;;;;5041136;28;20223;-86
2023/05/31 09:18:19;;;;;;;11.00;8.95;;;23.80;33.00;;;;;;5040740;28;20268;-88
2023/05/31 09:20:47;;;;;;;9.55;8.95;;;24.00;32.50;;;;;;5021000;28;20204;-86
2023/05/31 09:23:12;;;;;;;10.27;9.32;;;23.90;32.60;;;;;;5020681;28;20253;-85
2023/05/31 09:25:52;;;;;;;10.05;9.43;;;24.10;32.50;;;;;;5022712;28;20202;-86
2023/05/31 09:28:20;;;;;;;10.73;9.93;;;24.20;32.50;;;;;;5020777;28;20260;-87
2023/05/31 09:30:49;;;;;;;11.75;11.00;;;24.50;32.00;;;;;;5020060;28;20185;-86
2023/05/31 09:33:15;;;;;;;12.40;11.50;;;24.70;31.50;;;;;;5021645;28;20205;-86
2023/05/31 09:35:57;;;;;;;12.15;11.30;;;24.80;31.60;;;;;;5021972;28;20221;-87
2023/05/31 09:38:34;;;;;;;11.43;10.90;;;25.10;31.60;;;;;;5038382;28;20207;-86
2023/05/31 09:41:20;;;;;;;12.45;11.40;;;25.40;31.00;;;;;;5039581;28;20185;-85
2023/05/31 09:43:50;;;;;;;11.85;10.80;;;25.60;30.60;;;;;;5039321;28;20193;-86
2023/05/31 09:46:17;;;;;;;12.32;11.18;;;25.60;30.30;;;;;;5040331;28;20197;-86
2023/05/31 09:48:44;;;;;;;11.57;10.88;;;25.30;31.00;;;;;;5040350;28;20169;-87
2023/05/31 09:51:12;;;;;;;11.85;11.05;;;25.30;30.60;;;;;;5039372;28;20173;-86
2023/05/31 09:53:45;;;;;;;12.30;11.50;;;25.30;30.60;;;;;;5040141;28;20193;-86
2023/05/31 09:56:19;;;;;;;11.60;10.90;;;25.20;31.10;;;;;;5041047;28;20243;-86
2023/05/31 09:58:44;;;;;;;11.07;10.38;;;25.50;30.00;;;;;;5041246;28;20166;-87
2023/05/31 10:01:10;;;;;;;11.32;10.48;;;25.60;29.80;;;;;;5028935;28;20188;-86
2023/05/31 10:03:38;;;;;;;11.63;10.82;;;25.60;30.00;;;;;;5040135;28;20215;-85
2023/05/31 10:06:04;;;;;;;12.32;11.15;;;25.70;29.90;;;;;;5041251;28;20193;-87
2023/05/31 10:08:33;;;;;;;12.40;11.48;;;25.80;29.80;;;;;;5048735;28;20173;-86
2023/05/31 10:11:02;;;;;;;11.85;10.93;;;26.10;29.00;;;;;;5050449;28;20245;-87
2023/05/31 10:13:30;;;;;;;11.10;10.30;;;26.10;29.10;;;;;;5049068;28;20558;-85
2023/05/31 10:15:58;;;;;;;11.75;11.05;;;26.10;29.50;;;;;;5030328;28;20236;-86
2023/05/31 10:18:32;;;;;;;11.82;11.05;;;26.30;29.10;;;;;;5021339;28;20211;-86
2023/05/31 10:20:59;;;;;;;11.70;10.98;;;26.30;28.30;;;;;;5019753;28;20615;-86
2023/05/31 10:23:27;;;;;;;11.90;11.10;;;26.20;28.30;;;;;;5021890;28;20249;-87
2023/05/31 10:26:18;;;;;;;12.38;11.30;;;26.30;28.30;;;;;;5003191;28;20205;-87
2023/05/31 10:29:10;;;;;;;12.50;11.80;;;26.50;28.00;;;;;;5020359;28;20181;-86
2023/05/31 10:31:49;;;;;;;12.52;11.88;;;26.90;27.10;;;;;;5011825;28;20231;-86
2023/05/31 10:34:25;;;;;;;13.05;12.45;;;27.10;28.00;;;;;;5023003;28;20172;-87
2023/05/31 10:36:54;;;;;;;14.25;13.20;;;27.20;27.40;;;;;;5022752;28;20197;-87
2023/05/31 10:39:22;;;;;;;15.00;14.07;;;27.30;27.30;;;;;;5038303;28;20180;-86
2023/05/31 10:42:06;;;;;;;16.80;15.50;;;27.60;27.10;;;;;;5038667;28;20256;-87
2023/05/31 10:44:39;;;;;;;16.45;15.35;;;27.60;26.10;;;;;;5037760;28;20196;-86
2023/05/31 10:47:09;;;;;;;16.25;15.05;;;27.60;26.20;;;;;;5036984;28;20552;-89
2023/05/31 10:49:36;;;;;;;16.63;15.55;;;27.40;26.60;;;;;;5037289;28;20176;-86
2023/05/31 10:52:08;;;;;;;15.85;14.95;;;27.50;25.90;;;;;;5024084;28;20216;-85
2023/05/31 10:54:38;;;;;;;16.15;15.35;;;27.30;25.70;;;;;;5017644;28;20186;-88
2023/05/31 10:57:05;;;;;;;16.38;15.30;;;27.50;25.20;;;;;;5037153;28;20216;-89
2023/05/31 10:59:44;;;;;;;17.73;16.58;;;27.50;25.30;;;;;;5038949;28;20203;-87
2023/05/31 11:02:11;;;;;;;20.02;18.73;;;27.90;24.90;;;;;;5007470;28;20215;-86
2023/05/31 11:04:37;;;;;;;20.08;19.02;;;28.10;25.10;;;;;;5020570;28;20197;-86
2023/05/31 11:07:21;;;;;;;20.88;19.90;;;28.20;24.90;;;;;;5050039;23;20266;-87
2023/05/31 11:09:59;;;;;;;21.77;20.52;;;28.30;24.00;;;;;;5022133;28;20181;-87
2023/05/31 11:12:41;;;;;;;21.35;20.30;;;28.20;24.40;;;;;;5034701;28;20188;-87
2023/05/31 11:15:13;;;;;;;21.13;20.02;;;28.40;24.80;;;;;;5035590;28;20177;-87
2023/05/31 11:17:50;;;;;;;21.45;20.25;;;28.50;24.00;;;;;;5036313;28;20196;-87
2023/05/31 11:20:17;;;;;;;21.90;20.75;;;28.10;24.30;;;;;;5036621;28;20188;-86
2023/05/31 11:22:43;;;;;;;21.33;20.13;;;27.90;24.40;;;;;;5037865;28;20173;-87
2023/05/31 11:25:20;;;;;;;21.67;20.33;;;28.00;24.30;;;;;;5037980;28;20243;-88
2023/05/31 11:27:48;;;;;;;21.25;20.25;;;28.20;24.30;;;;;;5038839;28;20180;-88
2023/05/31 11:30:15;;;;;;;21.08;20.08;;;28.30;24.30;;;;;;5037595;28;20177;-86
2023/05/31 11:32:40;;;;;;;19.42;18.55;;;28.20;24.50;;;;;;5038002;28;20227;-87
2023/05/31 11:35:10;;;;;;;21.48;20.35;;;28.00;25.10;;;;;;5036449;28;20185;-87
2023/05/31 11:37:38;;;;;;;22.05;20.83;;;28.40;24.00;;;;;;5037075;28;20187;-87
2023/05/31 11:40:11;;;;;;;21.27;20.27;;;28.90;23.20;;;;;;5037492;28;20193;-87
2023/05/31 11:42:41;;;;;;;19.80;18.85;;;28.70;23.60;;;;;;5036930;28;20180;-89
2023/05/31 11:45:12;;;;;;;20.42;19.15;;;29.00;23.80;;;;;;5036967;28;20216;-87
2023/05/31 11:47:44;;;;;;;20.10;18.88;;;29.00;23.80;;;;;;5020293;28;20249;-86
2023/05/31 11:50:16;;;;;;;19.95;18.80;;;29.00;23.50;;;;;;5038159;28;20377;-86
2023/05/31 11:52:42;;;;;;;19.23;18.33;;;29.30;23.10;;;;;;5038061;28;20181;-87
2023/05/31 11:55:09;;;;;;;22.02;21.13;;;29.60;22.80;;;;;;5038642;28;20618;-86
2023/05/31 11:57:44;;;;;;;22.48;21.45;;;29.80;22.70;;;;;;5037985;28;20206;-87
2023/05/31 12:00:15;;;;;;;23.83;22.92;;;29.60;23.60;;;;;;5032403;28;20173;-87
2023/05/31 12:02:42;;;;;;;25.88;24.48;;;29.80;23.30;;;;;;5016011;28;20245;-86
2023/05/31 12:05:17;;;;;;;24.67;23.38;;;29.70;23.10;;;;;;5023701;28;20185;-85
2023/05/31 12:07:43;;;;;;;20.55;19.65;;;29.40;23.10;;;;;;5035902;28;20562;-86
2023/05/31 12:10:09;;;;;;;20.38;19.27;;;29.40;23.30;;;;;;5035782;28;20180;-86
2023/05/31 12:12:37;;;;;;;22.45;21.25;;;29.40;23.60;;;;;;5033822;28;20248;-87
2023/05/31 12:15:04;;;;;;;24.70;23.70;;;29.90;22.90;;;;;;5035764;28;20173;-88
2023/05/31 12:17:31;;;;;;;22.88;21.88;;;30.20;23.40;;;;;;5036739;28;20185;-90
2023/05/31 12:19:56;;;;;;;23.33;22.23;;;30.50;22.70;;;;;;5033437;28;20181;-87
2023/05/31 12:22:22;;;;;;;23.52;22.55;;;30.60;23.00;;;;;;5034339;28;20291;-87
2023/05/31 12:24:58;;;;;;;21.30;20.40;;;30.70;22.40;;;;;;5036249;28;20226;-88
2023/05/31 12:27:25;;;;;;;23.52;22.35;;;31.10;22.50;;;;;;5036074;28;20197;-87
2023/05/31 12:30:00;;;;;;;22.58;21.52;;;31.50;22.30;;;;;;5036542;28;20200;-87
2023/05/31 12:32:27;;;;;;;21.88;20.70;;;30.80;22.10;;;;;;5033336;28;20177;-86
2023/05/31 12:35:03;;;;;;;23.25;22.05;;;30.10;23.20;;;;;;5033030;28;20554;-87
2023/05/31 12:37:39;;;;;;;23.58;22.48;;;30.00;23.30;;;;;;5033435;28;20418;-87
2023/05/31 12:40:12;;;;;;;25.25;24.00;;;30.30;22.90;;;;;;5034575;28;20264;-86
2023/05/31 12:42:38;;;;;;;23.33;22.17;;;30.80;22.20;;;;;;5031323;28;20184;-88